createdAt,value
2023-02-04T00:02:18.299Z,5.60
2023-02-04T00:04:47.126Z,5.70
2023-02-04T00:07:18.601Z,5.00
2023-02-04T00:09:47.492Z,3.90
2023-02-04T00:12:16.674Z,5.20
2023-02-04T00:14:45.464Z,5.20
2023-02-04T00:17:14.373Z,3.90
2023-02-04T00:19:43.450Z,3.50
2023-02-04T00:22:12.360Z,5.80
2023-02-04T00:24:43.270Z,4.90
2023-02-04T00:27:12.031Z,4.00
2023-02-04T00:29:40.854Z,6.20
2023-02-04T00:32:09.854Z,6.80
2023-02-04T00:34:38.794Z,5.60
2023-02-04T00:37:07.736Z,7.20
2023-02-04T00:39:36.344Z,5.50
2023-02-04T00:42:08.509Z,5.40
2023-02-04T00:44:37.979Z,6.10
2023-02-04T00:47:06.828Z,6.40
2023-02-04T00:49:35.794Z,4.30
2023-02-04T00:52:04.968Z,6.00
2023-02-04T00:54:33.802Z,5.50
2023-02-04T00:57:03.379Z,6.10
2023-02-04T00:59:32.220Z,6.00
2023-02-04T01:02:00.982Z,3.40
2023-02-04T01:04:31.090Z,5.60
2023-02-04T01:07:00.042Z,7.10
2023-02-04T01:09:28.899Z,3.10
2023-02-04T01:11:57.847Z,6.80
2023-02-04T01:14:26.655Z,4.20
2023-02-04T01:16:55.399Z,3.10
2023-02-04T01:19:24.094Z,4.80
2023-02-04T01:21:52.839Z,3.90
2023-02-04T01:24:21.550Z,2.90
2023-02-04T01:27:08.852Z,4.90
2023-02-04T01:29:38.224Z,5.70
2023-02-04T01:32:07.031Z,3.60
2023-02-04T01:34:35.741Z,3.00
2023-02-04T01:37:04.407Z,7.30
2023-02-04T01:39:34.351Z,5.00
2023-02-04T01:42:04.099Z,4.90
2023-02-04T01:44:32.995Z,5.50
2023-02-04T01:47:02.165Z,6.00
2023-02-04T01:49:31.333Z,3.20
2023-02-04T01:52:00.315Z,5.50
2023-02-04T01:54:29.267Z,5.10
2023-02-04T01:56:58.942Z,4.40
2023-02-04T01:59:27.896Z,3.50
2023-02-04T02:01:56.723Z,4.20
2023-02-04T02:04:33.872Z,4.70
2023-02-04T02:07:06.927Z,5.60
2023-02-04T02:09:36.247Z,3.40
2023-02-04T02:12:08.097Z,3.10
2023-02-04T02:14:36.915Z,5.50
2023-02-04T02:17:05.757Z,7.20
2023-02-04T02:19:38.574Z,4.40
2023-02-04T02:22:37.948Z,5.60
2023-02-04T02:25:12.915Z,5.40
2023-02-04T02:27:42.030Z,5.90
2023-02-04T02:30:14.244Z,5.50
2023-02-04T02:32:44.934Z,4.30
2023-02-04T02:35:15.545Z,2.00
2023-02-04T02:37:44.519Z,5.30
2023-02-04T02:40:15.213Z,6.70
2023-02-04T02:42:48.363Z,4.30
2023-02-04T02:45:30.266Z,2.50
2023-02-04T02:48:02.992Z,6.60
2023-02-04T02:53:04.445Z,2.90
2023-02-04T02:55:33.349Z,6.00
2023-02-04T02:58:05.975Z,5.00
2023-02-04T03:00:34.971Z,6.10
2023-02-04T03:03:18.604Z,5.80
2023-02-04T03:05:52.994Z,6.00
2023-02-04T03:08:22.650Z,5.70
2023-02-04T03:10:51.661Z,4.30
2023-02-04T03:13:21.572Z,7.40
2023-02-04T03:15:51.514Z,5.10
2023-02-04T03:18:21.764Z,3.50
2023-02-04T03:20:52.308Z,4.80
2023-02-04T03:23:21.572Z,7.40
2023-02-04T03:25:50.378Z,4.40
2023-02-04T03:28:19.311Z,6.40
2023-02-04T03:30:56.057Z,6.10
2023-02-04T03:33:29.400Z,5.80
2023-02-04T03:35:59.485Z,4.30
2023-02-04T03:38:28.477Z,7.20
2023-02-04T03:40:57.242Z,5.10
2023-02-04T03:43:26.020Z,8.20
2023-02-04T03:45:55.255Z,7.80
2023-02-04T03:48:23.988Z,9.00
2023-02-04T03:50:52.701Z,9.40
2023-02-04T03:53:22.420Z,8.20
2023-02-04T03:55:51.114Z,8.10
2023-02-04T03:58:19.837Z,6.50
2023-02-04T04:00:49.046Z,7.20
2023-02-04T04:03:17.885Z,7.40
2023-02-04T04:05:46.721Z,4.70
2023-02-04T04:08:15.473Z,4.50
2023-02-04T04:10:44.442Z,6.20
2023-02-04T04:13:13.502Z,8.10
2023-02-04T04:15:42.560Z,9.10
2023-02-04T04:18:11.382Z,8.70
2023-02-04T04:20:39.941Z,8.30
2023-02-04T04:23:08.687Z,11.50
2023-02-04T04:25:37.607Z,3.70
2023-02-04T04:28:06.499Z,5.60
2023-02-04T04:30:35.229Z,8.80
2023-02-04T04:33:04.116Z,5.90
2023-02-04T04:35:32.950Z,10.00
2023-02-04T04:38:03.183Z,10.00
2023-02-04T04:40:32.324Z,7.20
2023-02-04T04:43:01.271Z,9.00
2023-02-04T04:45:29.971Z,5.80
2023-02-04T04:47:58.690Z,5.60
2023-02-04T04:50:27.705Z,9.70
2023-02-04T04:52:56.382Z,7.10
2023-02-04T04:55:25.171Z,7.80
2023-02-04T04:57:54.122Z,10.60
2023-02-04T05:00:23.200Z,6.70
2023-02-04T05:02:51.966Z,7.60
2023-02-04T05:05:20.949Z,9.40
2023-02-04T05:07:49.948Z,9.50
2023-02-04T05:10:20.384Z,9.50
2023-02-04T05:12:49.136Z,6.90
2023-02-04T05:15:18.069Z,10.50
2023-02-04T05:17:46.925Z,8.40
2023-02-04T05:20:15.769Z,6.70
2023-02-04T05:22:44.638Z,6.60
2023-02-04T05:25:13.530Z,7.10
2023-02-04T05:27:43.372Z,5.70
2023-02-04T05:30:13.567Z,10.70
2023-02-04T05:32:42.685Z,8.30
2023-02-04T05:35:11.526Z,7.10
2023-02-04T05:37:40.353Z,11.70
2023-02-04T05:40:09.897Z,6.70
2023-02-04T05:42:38.841Z,12.30
2023-02-04T05:45:09.986Z,7.20
2023-02-04T05:47:39.089Z,7.10
2023-02-04T05:50:08.784Z,9.80
2023-02-04T05:52:42.772Z,12.40
2023-02-04T05:55:13.038Z,10.90
2023-02-04T05:57:42.753Z,11.00
2023-02-04T06:00:13.694Z,12.20
2023-02-04T06:02:42.396Z,8.80
2023-02-04T06:05:11.304Z,11.70
2023-02-04T06:07:42.439Z,12.20
2023-02-04T06:10:12.064Z,12.20
2023-02-04T06:12:40.982Z,7.30
2023-02-04T06:15:10.430Z,11.90
2023-02-04T06:17:39.926Z,10.30
2023-02-04T06:20:09.634Z,10.00
2023-02-04T06:22:38.429Z,11.70
2023-02-04T06:25:07.867Z,11.80
2023-02-04T06:27:38.003Z,12.70
2023-02-04T06:30:07.346Z,6.10
2023-02-04T06:32:36.774Z,7.70
2023-02-04T06:35:07.437Z,12.70
2023-02-04T06:37:36.261Z,11.50
2023-02-04T06:40:06.424Z,11.60
2023-02-04T06:42:35.148Z,12.40
2023-02-04T06:45:04.934Z,12.60
2023-02-04T06:47:33.733Z,10.10
2023-02-04T06:50:02.491Z,13.50
2023-02-04T06:52:31.317Z,12.30
2023-02-04T06:55:00.090Z,12.70
2023-02-04T06:57:28.964Z,13.80
2023-02-04T06:59:58.312Z,10.20
2023-02-04T07:02:27.165Z,7.00
2023-02-04T07:04:55.937Z,12.50
2023-02-04T07:07:24.712Z,10.50
2023-02-04T07:09:53.933Z,11.10
2023-02-04T07:12:24.989Z,12.30
2023-02-04T07:14:53.826Z,7.90
2023-02-04T07:17:23.966Z,9.20
2023-02-04T07:19:53.212Z,9.40
2023-02-04T07:22:23.556Z,13.70
2023-02-04T07:24:52.198Z,8.90
2023-02-04T07:27:20.955Z,11.20
2023-02-04T07:29:49.694Z,10.40
2023-02-04T07:32:18.279Z,12.10
2023-02-04T07:34:48.264Z,8.90
2023-02-04T07:37:17.038Z,8.10
2023-02-04T07:39:45.785Z,8.00
2023-02-04T07:42:14.450Z,12.80
2023-02-04T07:44:46.280Z,15.00
2023-02-04T07:47:15.048Z,14.00
2023-02-04T07:49:43.836Z,11.10
2023-02-04T07:52:12.552Z,12.80
2023-02-04T07:54:41.182Z,10.90
2023-02-04T07:57:09.873Z,10.60
2023-02-04T07:59:38.702Z,14.20
2023-02-04T08:02:08.102Z,8.60
2023-02-04T08:04:38.287Z,7.80
2023-02-04T08:07:07.338Z,11.40
2023-02-04T08:09:36.994Z,10.90
2023-02-04T08:12:06.585Z,13.90
2023-02-04T08:14:35.380Z,9.00
2023-02-04T08:17:05.294Z,11.90
2023-02-04T08:19:36.610Z,10.90
2023-02-04T08:22:05.363Z,15.70
2023-02-04T08:24:34.230Z,10.40
2023-02-04T08:27:03.219Z,12.80
2023-02-04T08:29:32.100Z,14.90
2023-02-04T08:32:01.532Z,16.20
2023-02-04T08:34:31.534Z,15.60
2023-02-04T08:37:01.970Z,15.80
2023-02-04T08:39:30.827Z,17.10
2023-02-04T08:42:00.212Z,16.10
2023-02-04T08:44:29.538Z,16.00
2023-02-04T08:46:58.412Z,16.90
2023-02-04T08:49:27.062Z,15.00
2023-02-04T08:51:55.927Z,15.80
2023-02-04T08:54:26.354Z,12.20
2023-02-04T08:56:55.192Z,14.30
2023-02-04T08:59:24.408Z,13.60
2023-02-04T09:01:58.267Z,9.80
2023-02-04T09:04:28.714Z,12.80
2023-02-04T09:06:57.525Z,12.80
2023-02-04T09:09:26.487Z,11.70
2023-02-04T09:11:55.256Z,13.50
2023-02-04T09:14:23.987Z,9.00
2023-02-04T09:16:52.773Z,10.60
2023-02-04T09:19:25.689Z,7.80
2023-02-04T09:21:54.665Z,15.90
2023-02-04T09:24:23.847Z,12.40
2023-02-04T09:26:52.670Z,8.90
2023-02-04T09:29:21.608Z,17.10
2023-02-04T09:31:50.289Z,11.40
2023-02-04T09:34:19.933Z,8.90
2023-02-04T09:36:48.691Z,13.20
2023-02-04T09:39:17.363Z,16.40
2023-02-04T09:41:46.173Z,14.60
2023-02-04T09:44:20.316Z,17.60
2023-02-04T09:46:53.612Z,10.40
2023-02-04T09:49:23.794Z,9.80
2023-02-04T09:51:53.389Z,13.80
2023-02-04T09:54:23.948Z,15.30
2023-02-04T09:56:53.525Z,9.30
2023-02-04T09:59:24.452Z,9.80
2023-02-04T10:02:02.006Z,8.20
2023-02-04T10:04:31.216Z,11.00
2023-02-04T10:06:59.967Z,9.80
2023-02-04T10:09:28.699Z,7.70
2023-02-04T10:11:57.397Z,12.40
2023-02-04T10:14:26.097Z,10.70
2023-02-04T10:16:59.474Z,12.70
2023-02-04T10:19:31.050Z,13.20
2023-02-04T10:22:00.465Z,9.60
2023-02-04T10:24:30.878Z,11.50
2023-02-04T10:27:12.259Z,9.50
2023-02-04T10:29:42.455Z,12.10
2023-02-04T10:32:32.967Z,9.30
2023-02-04T10:35:03.855Z,13.00
2023-02-04T10:37:32.577Z,7.50
2023-02-04T10:40:01.587Z,7.30
2023-02-04T10:42:32.760Z,10.50
2023-02-04T10:45:01.572Z,10.90
2023-02-04T10:47:31.724Z,9.50
2023-02-04T10:50:17.778Z,8.90
2023-02-04T10:52:51.692Z,8.60
2023-02-04T10:55:24.807Z,5.80
2023-02-04T10:57:53.849Z,10.00
2023-02-04T11:00:25.877Z,8.90
2023-02-04T11:03:04.355Z,5.10
2023-02-04T11:05:35.688Z,6.90
2023-02-04T11:08:20.925Z,8.90
2023-02-04T11:11:06.108Z,10.30
2023-02-04T11:13:57.456Z,7.90
2023-02-04T11:16:30.553Z,9.40
2023-02-04T11:19:07.329Z,9.10
2023-02-04T11:21:35.970Z,13.80
2023-02-04T11:24:16.489Z,11.80
2023-02-04T11:27:05.180Z,8.80
2023-02-04T11:29:39.283Z,12.70
2023-02-04T11:32:38.550Z,14.10
2023-02-04T11:35:13.378Z,7.90
2023-02-04T11:37:43.715Z,11.00
2023-02-04T11:40:38.284Z,9.50
2023-02-04T11:43:21.940Z,9.40
2023-02-04T11:46:13.451Z,9.40
2023-02-04T11:48:44.100Z,9.60
2023-02-04T11:51:18.810Z,8.80
2023-02-04T11:53:52.809Z,12.20
2023-02-04T11:56:23.337Z,10.80
2023-02-04T11:58:55.801Z,10.20
2023-02-04T12:01:32.169Z,6.70
2023-02-04T12:04:07.026Z,9.60
2023-02-04T12:06:37.799Z,11.60
2023-02-04T12:09:22.483Z,8.80
2023-02-04T12:12:00.166Z,11.00
2023-02-04T12:14:37.149Z,11.30
2023-02-04T12:17:20.853Z,12.00
2023-02-04T12:19:49.491Z,9.60
2023-02-04T12:22:18.398Z,7.60
2023-02-04T12:24:47.191Z,10.80
2023-02-04T12:27:17.134Z,7.50
2023-02-04T12:29:46.181Z,7.70
2023-02-04T12:32:15.025Z,10.00
2023-02-04T12:34:46.927Z,10.20
2023-02-04T12:37:15.570Z,9.50
2023-02-04T12:39:47.775Z,10.10
2023-02-04T12:42:16.405Z,12.40
2023-02-04T12:44:45.173Z,11.40
2023-02-04T12:47:13.860Z,10.50
2023-02-04T12:49:42.733Z,10.50
2023-02-04T12:52:11.343Z,9.90
2023-02-04T12:54:40.143Z,12.10
2023-02-04T12:57:08.831Z,8.80
2023-02-04T12:59:37.835Z,12.10
2023-02-04T13:02:06.684Z,10.00
2023-02-04T13:04:36.571Z,10.90
2023-02-04T13:07:07.584Z,8.70
2023-02-04T13:09:37.503Z,9.60
2023-02-04T13:12:06.545Z,6.80
2023-02-04T13:14:35.262Z,9.60
2023-02-04T13:17:03.847Z,10.60
2023-02-04T13:19:32.735Z,8.40
2023-02-04T13:22:01.529Z,9.10
2023-02-04T13:24:30.395Z,7.60
2023-02-04T13:26:59.299Z,4.90
2023-02-04T13:29:28.091Z,6.10
2023-02-04T13:31:56.962Z,4.60
2023-02-04T13:34:25.819Z,4.40
2023-02-04T13:36:54.679Z,5.00
2023-02-04T13:39:23.941Z,4.80
2023-02-04T13:41:55.736Z,6.80
2023-02-04T13:44:24.495Z,5.00
2023-02-04T13:46:53.459Z,6.30
2023-02-04T13:49:22.296Z,6.10
2023-02-04T13:51:51.068Z,4.20
2023-02-04T13:54:19.798Z,4.90
2023-02-04T13:56:48.488Z,4.50
2023-02-04T13:59:17.299Z,6.80
2023-02-04T14:01:46.301Z,4.80
2023-02-04T14:04:15.088Z,4.20
2023-02-04T14:06:44.080Z,4.50
2023-02-04T14:09:13.505Z,4.10
2023-02-04T14:11:42.202Z,4.20
2023-02-04T14:14:11.684Z,4.80
2023-02-04T14:16:40.360Z,3.10
2023-02-04T14:19:09.701Z,3.80
2023-02-04T14:21:38.436Z,3.40
2023-02-04T14:24:07.473Z,3.70
2023-02-04T14:26:36.049Z,4.10
2023-02-04T14:29:04.926Z,4.20
2023-02-04T14:31:33.844Z,3.80
2023-02-04T14:34:02.680Z,3.50
2023-02-04T14:36:32.924Z,3.30
2023-02-04T14:39:02.242Z,4.50
2023-02-04T14:41:31.526Z,2.70
2023-02-04T14:44:00.353Z,4.40
2023-02-04T14:46:29.119Z,4.40
2023-02-04T14:48:57.807Z,4.00
2023-02-04T14:51:26.404Z,4.20
2023-02-04T14:53:55.263Z,4.30
2023-02-04T14:56:24.236Z,4.50
2023-02-04T14:58:55.313Z,3.30
2023-02-04T15:01:28.065Z,4.60
2023-02-04T15:03:57.121Z,4.20
2023-02-04T15:06:25.866Z,4.20
2023-02-04T15:08:54.888Z,3.40
2023-02-04T15:11:24.065Z,4.30
2023-02-04T15:13:52.997Z,4.30
2023-02-04T15:16:22.616Z,4.10
2023-02-04T15:19:04.257Z,3.70
2023-02-04T15:21:33.352Z,3.10
2023-02-04T15:24:02.398Z,3.70
2023-02-04T15:26:33.305Z,3.80
2023-02-04T15:29:02.218Z,4.80
2023-02-04T15:31:48.587Z,4.00
2023-02-04T15:34:23.251Z,4.40
2023-02-04T15:36:53.042Z,4.40
2023-02-04T15:39:22.879Z,4.10
2023-02-04T15:41:52.772Z,4.10
2023-02-04T15:44:22.427Z,3.30
2023-02-04T15:46:52.165Z,3.50
2023-02-04T15:49:24.154Z,3.00
2023-02-04T15:51:58.246Z,3.40
2023-02-04T15:54:29.207Z,3.10
2023-02-04T15:56:59.016Z,2.50
2023-02-04T15:59:28.906Z,3.00
2023-02-04T16:01:59.021Z,3.40
2023-02-04T16:04:29.092Z,1.50
2023-02-04T16:06:59.646Z,2.80
2023-02-04T16:09:32.733Z,2.50
2023-02-04T16:12:06.826Z,2.90
2023-02-04T16:14:35.936Z,3.50
2023-02-04T16:17:07.485Z,3.50
2023-02-04T16:19:43.399Z,3.00
2023-02-04T16:22:13.072Z,4.20
2023-02-04T16:24:45.989Z,4.80
2023-02-04T16:27:15.277Z,4.50
2023-02-04T16:29:47.367Z,4.50
2023-02-04T16:32:16.774Z,4.70
2023-02-04T16:34:49.369Z,4.40
2023-02-04T16:37:19.231Z,3.00
2023-02-04T16:39:49.286Z,4.00
2023-02-04T16:42:18.786Z,4.00
2023-02-04T16:44:49.600Z,4.10
2023-02-04T16:47:19.028Z,4.20
2023-02-04T16:49:49.387Z,4.80
2023-02-04T16:52:18.857Z,4.80
2023-02-04T16:54:48.121Z,3.30
2023-02-04T16:57:18.810Z,5.00
2023-02-04T16:59:47.965Z,4.60
2023-02-04T17:02:19.618Z,4.40
2023-02-04T17:04:49.310Z,6.50
2023-02-04T17:07:18.488Z,5.30
2023-02-04T17:09:47.804Z,5.80
2023-02-04T17:12:20.758Z,5.60
2023-02-04T17:14:51.065Z,4.30
2023-02-04T17:17:21.267Z,5.20
2023-02-04T17:19:52.899Z,6.00
2023-02-04T17:22:22.019Z,6.00
2023-02-04T17:24:54.932Z,4.60
2023-02-04T17:31:12.600Z,6.90
2023-02-04T17:33:52.181Z,4.00
2023-02-04T17:36:23.543Z,4.30
2023-02-04T17:38:56.089Z,5.60
2023-02-04T17:41:29.888Z,7.00
2023-02-04T17:44:00.302Z,3.10
2023-02-04T17:46:29.847Z,5.90
2023-02-04T17:49:02.728Z,5.40
2023-02-04T17:51:33.110Z,6.40
2023-02-04T17:54:05.153Z,5.90
2023-02-04T17:56:34.144Z,7.40
2023-02-04T17:59:02.936Z,6.20
2023-02-04T18:01:35.015Z,7.00
2023-02-04T18:04:05.187Z,5.90
2023-02-04T18:06:37.638Z,5.10
2023-02-04T18:09:15.767Z,5.10
2023-02-04T18:11:50.135Z,5.60
2023-02-04T18:14:28.674Z,4.50
2023-02-04T18:17:00.711Z,4.00
2023-02-04T18:19:37.394Z,4.60
2023-02-04T18:22:18.061Z,4.90
2023-02-04T18:24:49.095Z,4.50
2023-02-04T18:27:24.941Z,6.10
2023-02-04T18:30:01.901Z,5.80
2023-02-04T18:32:45.622Z,5.20
2023-02-04T18:35:23.908Z,5.00
2023-02-04T18:37:53.555Z,5.80
2023-02-04T18:40:32.879Z,4.70
2023-02-04T18:43:24.118Z,6.70
2023-02-04T18:45:54.908Z,6.40
2023-02-04T18:48:24.014Z,5.30
2023-02-04T18:50:55.335Z,3.90
2023-02-04T18:53:28.944Z,6.30
2023-02-04T18:56:02.092Z,7.20
2023-02-04T18:58:35.755Z,7.30
2023-02-04T19:01:28.018Z,6.80
2023-02-04T19:04:01.252Z,6.00
2023-02-04T19:06:44.730Z,9.00
2023-02-04T19:12:22.634Z,7.50
2023-02-04T19:14:52.255Z,8.20
2023-02-04T19:17:30.135Z,4.50
2023-02-04T19:20:19.485Z,6.10
2023-02-04T19:22:54.147Z,8.20
2023-02-04T19:25:42.000Z,6.60
2023-02-04T19:28:18.170Z,7.50
2023-02-04T19:30:51.741Z,5.20
2023-02-04T19:33:29.529Z,5.00
2023-02-04T19:36:22.277Z,5.60
2023-02-04T19:39:02.035Z,6.00
2023-02-04T19:41:53.758Z,5.40
2023-02-04T19:44:43.955Z,5.60
2023-02-04T19:47:26.915Z,6.60
2023-02-04T19:50:15.522Z,3.60
2023-02-04T19:52:52.646Z,5.60
2023-02-04T19:55:28.190Z,6.80
2023-02-04T19:58:11.719Z,9.70
2023-02-04T20:01:15.929Z,7.50
2023-02-04T20:03:52.276Z,6.10
2023-02-04T20:06:26.988Z,6.90
2023-02-04T20:09:36.401Z,6.90
2023-02-04T20:12:28.046Z,6.20
2023-02-04T20:14:58.339Z,4.70
2023-02-04T20:17:40.114Z,3.50
2023-02-04T20:20:31.262Z,6.40
2023-02-04T20:23:29.308Z,7.20
2023-02-04T20:26:01.008Z,6.50
2023-02-04T20:28:43.383Z,5.90
2023-02-04T20:31:39.222Z,5.30
2023-02-04T20:34:24.179Z,6.50
2023-02-04T20:36:56.748Z,5.80
2023-02-04T20:39:40.818Z,4.20
2023-02-04T20:42:34.696Z,3.20
2023-02-04T20:45:59.823Z,3.10
2023-02-04T20:48:37.255Z,3.40
2023-02-04T20:51:25.188Z,3.90
2023-02-04T20:54:01.884Z,3.90
2023-02-04T20:56:37.624Z,4.00
2023-02-04T20:59:13.056Z,2.90
2023-02-04T21:01:50.348Z,4.20
2023-02-04T21:04:23.368Z,3.70
2023-02-04T21:06:55.870Z,3.10
2023-02-04T21:09:29.195Z,2.50
2023-02-04T21:12:05.392Z,2.30
2023-02-04T21:14:35.167Z,2.40
2023-02-04T21:17:05.045Z,3.30
2023-02-04T21:19:35.449Z,3.20
2023-02-04T21:22:05.737Z,2.60
2023-02-04T21:24:34.852Z,3.30
2023-02-04T21:27:05.958Z,3.10
2023-02-04T21:29:35.299Z,3.60
2023-02-04T21:32:04.573Z,3.00
2023-02-04T21:34:33.665Z,3.80
2023-02-04T21:37:04.381Z,3.20
2023-02-04T21:39:34.323Z,2.80
2023-02-04T21:42:12.742Z,3.20
2023-02-04T21:44:41.945Z,3.80
2023-02-04T21:47:11.896Z,3.80
2023-02-04T21:49:43.008Z,2.80
2023-02-04T21:53:48.667Z,4.00
2023-02-04T21:56:17.955Z,3.30
2023-02-04T21:59:38.828Z,3.80
2023-02-04T22:02:18.701Z,2.30
2023-02-04T22:05:59.314Z,3.00
2023-02-04T22:08:31.426Z,3.50
2023-02-04T22:11:39.001Z,2.80
2023-02-04T22:14:29.194Z,2.60
2023-02-04T22:17:14.220Z,2.70
2023-02-04T22:20:35.138Z,2.50
2023-02-04T22:23:22.472Z,3.10
2023-02-04T22:25:53.189Z,3.20
2023-02-04T22:28:22.975Z,3.30
2023-02-04T22:30:54.153Z,2.30
2023-02-04T22:33:33.445Z,1.80
2023-02-04T22:36:12.074Z,2.80
2023-02-04T22:38:45.844Z,1.60
2023-02-04T22:41:25.543Z,2.80
2023-02-04T22:44:32.826Z,2.10
2023-02-04T22:47:01.925Z,2.30
2023-02-04T22:49:32.833Z,2.00
2023-02-04T22:52:28.752Z,2.10
2023-02-04T22:55:20.938Z,2.70
2023-02-04T22:57:55.187Z,3.00
2023-02-04T23:00:33.363Z,2.70
2023-02-04T23:03:02.083Z,3.30
2023-02-04T23:05:31.117Z,2.50
2023-02-04T23:07:59.913Z,2.50
2023-02-04T23:10:31.408Z,2.20
2023-02-04T23:13:00.256Z,2.70
2023-02-04T23:15:29.041Z,1.60
2023-02-04T23:17:58.529Z,3.10
2023-02-04T23:20:27.737Z,3.00
2023-02-04T23:22:56.494Z,2.20
2023-02-04T23:25:25.124Z,2.80
2023-02-04T23:27:53.918Z,3.10
2023-02-04T23:30:24.440Z,2.90
2023-02-04T23:32:53.269Z,1.20
2023-02-04T23:35:22.022Z,3.20
2023-02-04T23:37:50.652Z,3.00
2023-02-04T23:40:19.399Z,3.20
2023-02-04T23:42:48.068Z,3.10
2023-02-04T23:45:16.971Z,3.70
2023-02-04T23:47:45.670Z,4.10
2023-02-04T23:50:14.352Z,3.10
2023-02-04T23:52:44.112Z,3.30
2023-02-04T23:55:16.717Z,2.70
2023-02-04T23:57:49.973Z,3.00
